Time;durP1;ratioP1;P1;durP2;ratioP2;P2;SDS_P1;SDS_P2;PMS_P1;PMS_P2;Temp;Humidity;BMP_temperature;BMP_pressure;BME280_temperature;BME280_humidity;BME280_pressure;Samples;Min_cycle;Max_cycle;Signal;HPM_P1;HPM_P2
2022/10/11 00:01:27;;;;;;;;;;;9.20;99.90;;;;;;7335349;19;110837;-74
2022/10/11 00:03:54;;;;;;;;;;;9.20;99.90;;;;;;7337639;19;110503;-75
2022/10/11 00:06:21;;;;;;;;;;;9.10;99.90;;;;;;7335447;19;111141;-75
2022/10/11 00:08:48;;;;;;;;;;;9.10;99.90;;;;;;7336370;19;109365;-75
2022/10/11 00:11:15;;;;;;;;;;;9.10;99.90;;;;;;7339141;19;109351;-75
2022/10/11 00:13:41;;;;;;;;;;;9.10;99.90;;;;;;7339443;19;108423;-76
2022/10/11 00:16:13;;;;;;;;;;;9.00;99.90;;;;;;7336290;19;109655;-79
2022/10/11 00:18:40;;;;;;;;;;;8.90;99.90;;;;;;7336987;19;113436;-77
2022/10/11 00:21:08;;;;;;;;;;;8.90;99.90;;;;;;7336409;19;110277;-79
2022/10/11 00:23:34;;;;;;;;;;;8.90;99.90;;;;;;7336993;19;109250;-78
2022/10/11 00:26:02;;;;;;;;;;;8.90;99.90;;;;;;7334200;19;110398;-74
2022/10/11 00:28:30;;;;;;;;;;;8.90;99.90;;;;;;7336106;19;108715;-74
2022/10/11 00:30:57;;;;;;;;;;;8.90;99.90;;;;;;7337421;19;108980;-74
2022/10/11 00:33:25;;;;;;;;;;;8.90;99.90;;;;;;7337021;19;111257;-74
2022/10/11 00:35:52;;;;;;;;;;;8.80;99.90;;;;;;7333291;19;109107;-74
2022/10/11 00:38:18;;;;;;;;;;;8.80;99.90;;;;;;7336212;19;114246;-74
2022/10/11 00:40:45;;;;;;;;;;;8.80;99.90;;;;;;7332221;19;109813;-74
2022/10/11 00:43:17;;;;;;;;;;;8.80;99.90;;;;;;7331578;19;111433;-74
2022/10/11 00:45:44;;;;;;;;;;;8.70;99.90;;;;;;7335119;19;110472;-74
2022/10/11 00:48:14;;;;;;;;;;;8.50;99.90;;;;;;7334353;19;108916;-74
2022/10/11 00:50:41;;;;;;;;;;;8.40;99.90;;;;;;7335650;19;108921;-73
2022/10/11 00:53:10;;;;;;;;;;;8.40;99.90;;;;;;7334985;19;109420;-74
2022/10/11 00:55:51;;;;;;;;;;;8.40;99.90;;;;;;7339632;19;108744;-74
2022/10/11 00:58:19;;;;;;;;;;;8.40;99.90;;;;;;7334894;19;110638;-74
2022/10/11 01:00:46;;;;;;;;;;;8.40;99.90;;;;;;7336767;19;109403;-74
2022/10/11 01:03:16;;;;;;;;;;;8.40;99.90;;;;;;7334285;19;109754;-74
2022/10/11 01:05:43;;;;;;;;;;;8.40;99.90;;;;;;7334142;19;111440;-74
2022/10/11 01:08:11;;;;;;;;;;;8.40;99.90;;;;;;7334326;19;109185;-73
2022/10/11 01:10:37;;;;;;;;;;;8.40;99.90;;;;;;7335233;19;108421;-74
2022/10/11 01:13:17;;;;;;;;;;;8.40;99.90;;;;;;7334372;19;110302;-74
2022/10/11 01:15:47;;;;;;;;;;;8.40;99.90;;;;;;7340403;19;111504;-74
2022/10/11 01:18:20;;;;;;;;;;;8.40;99.90;;;;;;7333030;19;115572;-74
2022/10/11 01:20:47;;;;;;;;;;;8.30;99.90;;;;;;7332007;19;109286;-74
2022/10/11 01:23:32;;;;;;;;;;;8.30;99.90;;;;;;7333185;19;109889;-74
2022/10/11 01:26:25;;;;;;;;;;;8.30;99.90;;;;;;7329491;19;111573;-74
2022/10/11 01:29:10;;;;;;;;;;;8.20;99.90;;;;;;7335152;19;109117;-73
2022/10/11 01:31:51;;;;;;;;;;;8.20;99.90;;;;;;7335466;19;108771;-74
2022/10/11 01:34:21;;;;;;;;;;;8.20;99.90;;;;;;7331426;19;109873;-74
2022/10/11 01:36:54;;;;;;;;;;;8.10;99.90;;;;;;7334878;19;109005;-74
2022/10/11 01:39:24;;;;;;;;;;;8.10;99.90;;;;;;7333280;19;109561;-74
2022/10/11 01:41:53;;;;;;;;;;;8.10;99.90;;;;;;7333833;19;108607;-74
2022/10/11 01:44:21;;;;;;;;;;;8.00;99.90;;;;;;7332208;19;109539;-74
2022/10/11 01:46:49;;;;;;;;;;;8.10;99.90;;;;;;7331717;19;113891;-74
2022/10/11 01:49:16;;;;;;;;;;;8.00;99.90;;;;;;7333231;19;109077;-74
2022/10/11 01:51:51;;;;;;;;;;;8.00;99.90;;;;;;7333628;19;109602;-74
2022/10/11 01:54:18;;;;;;;;;;;8.00;99.90;;;;;;7332889;19;111500;-75
2022/10/11 01:57:03;;;;;;;;;;;7.90;99.90;;;;;;7331024;19;109811;-74
2022/10/11 01:59:30;;;;;;;;;;;7.90;99.90;;;;;;7331968;19;112264;-74
2022/10/11 02:02:06;;;;;;;;;;;7.80;99.90;;;;;;7337630;19;109618;-74
2022/10/11 02:04:44;;;;;;;;;;;7.80;99.90;;;;;;7330769;19;110339;-74
2022/10/11 02:07:23;;;;;;;;;;;7.80;99.90;;;;;;7325770;19;110445;-74
2022/10/11 02:09:54;;;;;;;;;;;7.80;99.90;;;;;;7333197;19;108263;-74
2022/10/11 02:12:42;;;;;;;;;;;7.80;99.90;;;;;;7328835;19;108952;-74
2022/10/11 02:15:10;;;;;;;;;;;7.70;99.90;;;;;;7331653;19;109799;-74
2022/10/11 02:17:40;;;;;;;;;;;7.70;99.90;;;;;;7333360;19;108743;-74
2022/10/11 02:20:10;;;;;;;;;;;7.70;99.90;;;;;;7329940;19;110548;-74
2022/10/11 02:22:39;;;;;;;;;;;7.60;99.90;;;;;;7330601;19;110090;-74
2022/10/11 02:25:08;;;;;;;;;;;7.60;99.90;;;;;;7336483;19;109015;-74
2022/10/11 02:27:37;;;;;;;;;;;7.60;99.90;;;;;;7330788;19;109461;-74
2022/10/11 02:30:06;;;;;;;;;;;7.60;99.90;;;;;;7332295;19;108878;-74
2022/10/11 02:32:35;;;;;;;;;;;7.50;99.90;;;;;;7328809;19;110190;-74
2022/10/11 02:35:02;;;;;;;;;;;7.50;99.90;;;;;;7331922;19;112124;-74
2022/10/11 02:37:40;;;;;;;;;;;7.50;99.90;;;;;;7329661;19;110572;-74
2022/10/11 02:40:10;;;;;;;;;;;7.50;99.90;;;;;;7332594;19;112864;-74
2022/10/11 02:42:43;;;;;;;;;;;7.50;99.90;;;;;;7332949;19;109899;-74
2022/10/11 02:45:30;;;;;;;;;;;7.50;99.90;;;;;;7329190;19;109641;-74
2022/10/11 02:47:57;;;;;;;;;;;7.40;99.90;;;;;;7334887;19;110536;-74
2022/10/11 02:50:25;;;;;;;;;;;7.40;99.90;;;;;;7328941;19;108776;-74
2022/10/11 02:52:52;;;;;;;;;;;7.40;99.90;;;;;;7330594;19;108387;-74
2022/10/11 02:55:19;;;;;;;;;;;7.40;99.90;;;;;;7327941;19;110904;-74
2022/10/11 02:57:46;;;;;;;;;;;7.30;99.90;;;;;;7332283;19;109543;-74
2022/10/11 03:00:13;;;;;;;;;;;7.30;99.90;;;;;;7330349;19;110584;-74
2022/10/11 03:02:40;;;;;;;;;;;7.30;99.90;;;;;;7331501;19;109707;-74
2022/10/11 03:05:07;;;;;;;;;;;7.20;99.90;;;;;;7334031;19;110726;-74
2022/10/11 03:07:34;;;;;;;;;;;7.10;99.90;;;;;;7338238;19;114876;-74
2022/10/11 03:10:01;;;;;;;;;;;7.20;99.90;;;;;;7340905;19;109194;-74
2022/10/11 03:12:27;;;;;;;;;;;7.20;99.90;;;;;;7336493;19;109089;-74
2022/10/11 03:14:54;;;;;;;;;;;7.20;99.90;;;;;;7336970;19;109183;-74
2022/10/11 03:17:21;;;;;;;;;;;7.10;99.90;;;;;;7337305;19;108883;-74
2022/10/11 03:20:04;;;;;;;;;;;7.20;99.90;;;;;;7336614;19;110106;-74
2022/10/11 03:22:31;;;;;;;;;;;7.20;99.90;;;;;;7333844;19;110194;-74
2022/10/11 03:24:58;;;;;;;;;;;7.20;99.90;;;;;;7338888;19;108541;-74
2022/10/11 03:27:30;;;;;;;;;;;7.20;99.90;;;;;;7336398;19;109397;-74
2022/10/11 03:29:58;;;;;;;;;;;7.20;99.90;;;;;;7342975;19;109693;-74
2022/10/11 03:32:25;;;;;;;;;;;7.10;99.90;;;;;;7335284;19;109077;-74
2022/10/11 03:34:51;;;;;;;;;;;7.10;99.90;;;;;;7335953;19;111726;-74
2022/10/11 03:37:18;;;;;;;;;;;7.10;99.90;;;;;;7333958;19;109140;-74
2022/10/11 03:39:45;;;;;;;;;;;7.10;99.90;;;;;;7335875;19;109150;-75
2022/10/11 03:42:12;;;;;;;;;;;7.00;99.90;;;;;;7333960;19;113401;-75
2022/10/11 03:44:40;;;;;;;;;;;7.00;99.90;;;;;;7336584;19;109023;-74
2022/10/11 03:47:07;;;;;;;;;;;7.00;99.90;;;;;;7334407;19;108945;-74
2022/10/11 03:49:34;;;;;;;;;;;7.00;99.90;;;;;;7336025;19;110302;-74
2022/10/11 03:52:08;;;;;;;;;;;6.90;99.90;;;;;;7340044;19;108597;-74
2022/10/11 03:54:35;;;;;;;;;;;6.90;99.90;;;;;;7334577;19;111215;-74
2022/10/11 03:57:02;;;;;;;;;;;6.90;99.90;;;;;;7335001;19;108727;-74
2022/10/11 03:59:29;;;;;;;;;;;6.90;99.90;;;;;;7336920;19;109894;-74
2022/10/11 04:01:55;;;;;;;;;;;6.80;99.90;;;;;;7335212;19;110013;-74
2022/10/11 04:04:22;;;;;;;;;;;6.80;99.90;;;;;;7335306;19;109176;-75
2022/10/11 04:06:49;;;;;;;;;;;6.80;99.90;;;;;;7333647;19;109333;-74
2022/10/11 04:09:16;;;;;;;;;;;6.80;99.90;;;;;;7332275;19;110258;-74
2022/10/11 04:11:43;;;;;;;;;;;6.80;99.90;;;;;;7334134;19;109189;-74
2022/10/11 04:14:10;;;;;;;;;;;6.80;99.90;;;;;;7338566;19;109350;-74
2022/10/11 04:16:40;;;;;;;;;;;6.70;99.90;;;;;;7333581;19;110192;-75
2022/10/11 04:19:07;;;;;;;;;;;6.70;99.90;;;;;;7339126;19;110044;-74
2022/10/11 04:21:34;;;;;;;;;;;6.70;99.90;;;;;;7333578;19;118890;-74
2022/10/11 04:24:00;;;;;;;;;;;6.70;99.90;;;;;;7335988;19;108745;-74
2022/10/11 04:26:27;;;;;;;;;;;6.70;99.90;;;;;;7334170;19;109085;-74
2022/10/11 04:28:57;;;;;;;;;;;6.70;99.90;;;;;;7336168;19;110221;-74
2022/10/11 04:31:24;;;;;;;;;;;6.70;99.90;;;;;;7333301;19;109193;-74
2022/10/11 04:33:51;;;;;;;;;;;6.60;99.90;;;;;;7335306;19;109527;-74
2022/10/11 04:36:18;;;;;;;;;;;6.60;99.90;;;;;;7339665;19;109361;-74
2022/10/11 04:38:48;;;;;;;;;;;6.60;99.90;;;;;;7335873;19;109920;-74
2022/10/11 04:41:15;;;;;;;;;;;6.60;99.90;;;;;;7332904;19;110498;-73
2022/10/11 04:43:41;;;;;;;;;;;6.70;99.90;;;;;;7335335;19;108702;-74
2022/10/11 04:46:09;;;;;;;;;;;6.60;99.90;;;;;;7335518;19;109910;-74
2022/10/11 04:48:36;;;;;;;;;;;6.60;99.90;;;;;;7336711;19;110594;-74
2022/10/11 04:51:04;;;;;;;;;;;6.60;99.90;;;;;;7332629;19;109122;-74
2022/10/11 04:53:31;;;;;;;;;;;6.60;99.90;;;;;;7333089;19;109180;-74
2022/10/11 04:55:59;;;;;;;;;;;6.60;99.90;;;;;;7334595;19;110347;-74
2022/10/11 04:58:27;;;;;;;;;;;6.50;99.90;;;;;;7339185;19;109931;-74
2022/10/11 05:00:54;;;;;;;;;;;6.50;99.90;;;;;;7333482;19;112216;-74
2022/10/11 05:03:22;;;;;;;;;;;6.50;99.90;;;;;;7332029;19;108907;-74
2022/10/11 05:05:49;;;;;;;;;;;6.50;99.90;;;;;;7335395;19;108999;-74
2022/10/11 05:08:16;;;;;;;;;;;6.60;99.90;;;;;;7334127;19;110235;-75
2022/10/11 05:10:53;;;;;;;;;;;6.60;99.90;;;;;;7335291;19;108305;-74
2022/10/11 05:13:19;;;;;;;;;;;6.60;99.90;;;;;;7328026;19;109350;-77
2022/10/11 05:15:49;;;;;;;;;;;6.60;99.90;;;;;;7328695;19;110373;-77
2022/10/11 05:18:16;;;;;;;;;;;6.60;99.90;;;;;;7330468;19;109902;-79
2022/10/11 05:20:43;;;;;;;;;;;6.60;99.90;;;;;;7334848;19;112338;-75
2022/10/11 05:23:10;;;;;;;;;;;6.60;99.90;;;;;;7333055;19;108610;-74
2022/10/11 05:25:37;;;;;;;;;;;6.70;99.90;;;;;;7335963;19;112140;-74
2022/10/11 05:28:04;;;;;;;;;;;6.70;99.90;;;;;;7332514;19;112409;-74
2022/10/11 05:30:31;;;;;;;;;;;6.70;99.90;;;;;;7333202;19;109646;-76
2022/10/11 05:32:59;;;;;;;;;;;6.80;99.90;;;;;;7332632;19;109486;-75
2022/10/11 05:35:26;;;;;;;;;;;6.70;99.90;;;;;;7329875;19;110096;-74
2022/10/11 05:37:53;;;;;;;;;;;6.60;99.90;;;;;;7337832;19;109681;-75
2022/10/11 05:40:20;;;;;;;;;;;6.50;99.90;;;;;;7332216;19;110497;-67
2022/10/11 05:42:46;;;;;;;;;;;6.60;99.90;;;;;;7333501;19;109057;-67
2022/10/11 05:45:13;;;;;;;;;;;6.70;99.90;;;;;;7331086;19;109152;-67
2022/10/11 05:47:40;;;;;;;;;;;6.80;99.90;;;;;;7331896;19;109525;-67
2022/10/11 05:50:07;;;;;;;;;;;6.80;99.90;;;;;;7332755;19;108655;-67
2022/10/11 05:52:34;;;;;;;;;;;6.80;99.90;;;;;;7336086;19;109644;-67
2022/10/11 05:55:02;;;;;;;;;;;6.90;99.90;;;;;;7332292;19;110696;-69
2022/10/11 05:57:29;;;;;;;;;;;6.90;99.90;;;;;;7331598;19;117790;-67
2022/10/11 05:59:56;;;;;;;;;;;6.90;99.90;;;;;;7332251;19;111917;-67
2022/10/11 06:02:23;;;;;;;;;;;6.90;99.90;;;;;;7336089;19;109600;-67
2022/10/11 06:04:50;;;;;;;;;;;6.90;99.90;;;;;;7333543;19;109535;-67
2022/10/11 06:07:16;;;;;;;;;;;6.90;99.90;;;;;;7332403;19;110352;-67
2022/10/11 06:09:43;;;;;;;;;;;6.90;99.90;;;;;;7332652;19;108242;-67
2022/10/11 06:12:13;;;;;;;;;;;6.70;99.90;;;;;;7331409;19;109757;-67
2022/10/11 06:14:40;;;;;;;;;;;6.60;99.90;;;;;;7329707;19;110403;-67
2022/10/11 06:17:06;;;;;;;;;;;6.50;99.90;;;;;;7332946;19;108735;-69
2022/10/11 06:19:33;;;;;;;;;;;6.50;99.90;;;;;;7332547;19;109098;-68
2022/10/11 06:22:01;;;;;;;;;;;6.50;99.90;;;;;;7330611;19;110780;-67
2022/10/11 06:24:27;;;;;;;;;;;6.50;99.90;;;;;;7339576;19;110720;-68
2022/10/11 06:26:54;;;;;;;;;;;6.60;99.90;;;;;;7331459;19;110176;-70
2022/10/11 06:29:21;;;;;;;;;;;6.60;99.90;;;;;;7332855;19;109928;-68
2022/10/11 06:31:48;;;;;;;;;;;6.70;99.90;;;;;;7332366;19;109122;-71
2022/10/11 06:34:15;;;;;;;;;;;6.70;99.90;;;;;;7328448;19;109381;-67
2022/10/11 06:36:42;;;;;;;;;;;6.80;99.90;;;;;;7332377;19;110193;-68
2022/10/11 06:39:09;;;;;;;;;;;6.80;99.90;;;;;;7333395;19;110684;-67
2022/10/11 06:41:36;;;;;;;;;;;6.80;99.90;;;;;;7339318;19;109486;-68
2022/10/11 06:44:03;;;;;;;;;;;6.90;99.90;;;;;;7339754;19;108786;-68
2022/10/11 06:46:30;;;;;;;;;;;7.00;99.90;;;;;;7341986;19;108415;-67
2022/10/11 06:48:57;;;;;;;;;;;7.00;99.90;;;;;;7337367;19;108305;-67
2022/10/11 06:51:24;;;;;;;;;;;7.00;99.90;;;;;;7336098;19;113165;-67
2022/10/11 06:53:54;;;;;;;;;;;7.10;99.90;;;;;;7339545;19;109830;-67
2022/10/11 06:56:21;;;;;;;;;;;7.20;99.90;;;;;;7337086;19;109568;-67
2022/10/11 06:58:49;;;;;;;;;;;7.20;99.90;;;;;;7340580;19;109456;-67
2022/10/11 07:01:19;;;;;;;;;;;7.30;99.90;;;;;;7336654;19;109197;-67
2022/10/11 07:03:46;;;;;;;;;;;7.40;99.90;;;;;;7338588;19;109114;-67
2022/10/11 07:06:15;;;;;;;;;;;7.40;99.90;;;;;;7338491;19;109167;-67
2022/10/11 07:08:42;;;;;;;;;;;7.40;99.90;;;;;;7344742;19;110604;-67
2022/10/11 07:11:14;;;;;;;;;;;7.50;99.90;;;;;;7338046;19;108931;-67
2022/10/11 07:13:41;;;;;;;;;;;7.50;99.90;;;;;;7339539;19;110179;-67
2022/10/11 07:16:09;;;;;;;;;;;7.60;99.90;;;;;;7340105;19;109844;-67
2022/10/11 07:18:37;;;;;;;;;;;7.70;99.90;;;;;;7338627;19;109087;-67
2022/10/11 07:21:04;;;;;;;;;;;7.80;99.90;;;;;;7335317;19;110315;-67
2022/10/11 07:23:31;;;;;;;;;;;7.80;99.90;;;;;;7337688;19;109116;-67
2022/10/11 07:25:58;;;;;;;;;;;7.90;99.90;;;;;;7338957;19;109171;-67
2022/10/11 07:28:26;;;;;;;;;;;8.00;99.90;;;;;;7340323;19;111514;-67
2022/10/11 07:30:53;;;;;;;;;;;8.00;99.90;;;;;;7345406;19;108433;-67
2022/10/11 07:33:20;;;;;;;;;;;8.10;99.90;;;;;;7336870;19;109446;-67
2022/10/11 07:35:47;;;;;;;;;;;8.10;99.90;;;;;;7340782;19;109269;-67
2022/10/11 07:38:17;;;;;;;;;;;8.10;99.90;;;;;;7336765;19;109100;-67
2022/10/11 07:40:45;;;;;;;;;;;8.10;99.90;;;;;;7337801;19;110282;-67
2022/10/11 07:43:12;;;;;;;;;;;8.20;99.90;;;;;;7336182;19;108889;-67
2022/10/11 07:45:40;;;;;;;;;;;8.30;99.90;;;;;;7340405;19;110114;-67
2022/10/11 07:48:07;;;;;;;;;;;8.40;99.90;;;;;;7337584;19;109242;-67
2022/10/11 07:50:34;;;;;;;;;;;8.50;99.90;;;;;;7341774;19;109178;-67
2022/10/11 07:53:01;;;;;;;;;;;8.60;99.90;;;;;;7337315;19;109022;-67
2022/10/11 07:55:30;;;;;;;;;;;8.70;99.90;;;;;;7335256;19;108509;-67
2022/10/11 07:57:57;;;;;;;;;;;8.80;99.90;;;;;;7337045;19;109341;-67
2022/10/11 08:00:24;;;;;;;;;;;8.90;99.90;;;;;;7336364;19;109262;-67
2022/10/11 08:02:51;;;;;;;;;;;9.00;99.90;;;;;;7337141;19;109389;-67
2022/10/11 08:05:18;;;;;;;;;;;9.20;99.90;;;;;;7337116;19;109151;-67
2022/10/11 08:07:47;;;;;;;;;;;9.20;99.90;;;;;;7336763;19;109281;-67
2022/10/11 08:10:16;;;;;;;;;;;9.30;99.90;;;;;;7333781;19;109046;-67
2022/10/11 08:12:45;;;;;;;;;;;9.40;99.90;;;;;;7344522;19;111987;-67
2022/10/11 08:15:12;;;;;;;;;;;9.50;99.90;;;;;;7335357;19;108354;-67
2022/10/11 08:17:39;;;;;;;;;;;9.60;99.90;;;;;;7336621;19;109286;-67
2022/10/11 08:20:06;;;;;;;;;;;9.80;99.90;;;;;;7336730;19;110465;-67
2022/10/11 08:22:33;;;;;;;;;;;9.90;99.90;;;;;;7334614;19;108924;-67
2022/10/11 08:25:00;;;;;;;;;;;10.00;99.90;;;;;;7336813;19;109303;-67
2022/10/11 08:27:27;;;;;;;;;;;10.10;99.90;;;;;;7334682;19;110324;-67
2022/10/11 08:29:53;;;;;;;;;;;10.30;99.90;;;;;;7337518;19;108926;-67
2022/10/11 08:32:20;;;;;;;;;;;10.40;99.90;;;;;;7335274;19;108249;-67
2022/10/11 08:34:47;;;;;;;;;;;10.50;99.90;;;;;;7341505;19;110320;-67
2022/10/11 08:37:14;;;;;;;;;;;10.60;99.90;;;;;;7336271;19;109489;-67
2022/10/11 08:39:41;;;;;;;;;;;10.80;99.90;;;;;;7336625;19;110265;-67
2022/10/11 08:42:15;;;;;;;;;;;10.90;99.90;;;;;;7336474;19;110617;-67
2022/10/11 08:44:45;;;;;;;;;;;11.00;99.90;;;;;;7336207;19;109848;-67
2022/10/11 08:47:35;;;;;;;;;;;11.20;99.90;;;;;;7341044;19;112342;-94
2022/10/11 08:50:03;;;;;;;;;;;11.30;99.90;;;;;;7349101;19;108414;-93
2022/10/11 08:52:40;;;;;;;;;;;11.40;99.90;;;;;;7335637;19;111633;-67
2022/10/11 08:55:16;;;;;;;;;;;11.50;99.90;;;;;;7334856;19;109620;-67
2022/10/11 08:57:44;;;;;;;;;;;11.70;99.90;;;;;;7342018;19;108751;-68
2022/10/11 09:00:13;;;;;;;;;;;11.80;99.90;;;;;;7334940;19;110198;-67
2022/10/11 09:02:46;;;;;;;;;;;11.90;99.90;;;;;;7334715;19;108772;-67
2022/10/11 09:05:34;;;;;;;;;;;12.00;99.90;;;;;;7333095;19;110429;-68
2022/10/11 09:08:11;;;;;;;;;;;12.20;99.90;;;;;;7335896;19;109816;-67
2022/10/11 09:10:38;;;;;;;;;;;12.30;99.90;;;;;;7335866;19;109392;-67
2022/10/11 09:13:05;;;;;;;;;;;12.40;99.90;;;;;;7335169;19;108813;-68
2022/10/11 09:15:54;;;;;;;;;;;12.60;99.90;;;;;;7333303;19;110265;-67
2022/10/11 09:18:34;;;;;;;;;;;12.80;99.90;;;;;;7334836;19;108737;-67
2022/10/11 09:21:04;;;;;;;;;;;13.00;99.90;;;;;;7340974;19;110302;-67
2022/10/11 09:23:37;;;;;;;;;;;13.10;99.90;;;;;;7334759;19;109065;-67
2022/10/11 09:26:10;;;;;;;;;;;13.20;99.90;;;;;;7334302;19;109511;-67
2022/10/11 09:28:37;;;;;;;;;;;13.40;99.90;;;;;;7334349;19;109477;-67
2022/10/11 09:31:07;;;;;;;;;;;13.50;99.90;;;;;;7335339;19;109341;-67
2022/10/11 09:33:47;;;;;;;;;;;13.70;99.90;;;;;;7336103;19;108685;-67
2022/10/11 09:36:23;;;;;;;;;;;13.80;99.90;;;;;;7333182;19;110281;-68
2022/10/11 09:38:58;;;;;;;;;;;13.80;99.90;;;;;;7335304;19;108798;-67
2022/10/11 09:41:47;;;;;;;;;;;13.90;99.90;;;;;;7338178;19;109069;-67
2022/10/11 09:44:23;;;;;;;;;;;14.10;99.90;;;;;;7334067;19;108927;-66
2022/10/11 09:46:52;;;;;;;;;;;14.20;99.90;;;;;;7335047;19;109368;-66
2022/10/11 09:49:21;;;;;;;;;;;14.30;99.90;;;;;;7333133;19;111341;-67
2022/10/11 09:51:52;;;;;;;;;;;14.40;99.90;;;;;;7335066;19;109016;-66
2022/10/11 09:54:26;;;;;;;;;;;14.50;99.90;;;;;;7332361;19;109259;-67
2022/10/11 09:56:53;;;;;;;;;;;14.60;99.90;;;;;;7332637;19;109184;-67
2022/10/11 09:59:30;;;;;;;;;;;14.70;99.90;;;;;;7333297;19;108541;-67
2022/10/11 10:02:11;;;;;;;;;;;14.80;99.90;;;;;;7333938;19;108777;-67
2022/10/11 10:05:14;;;;;;;;;;;15.00;99.90;;;;;;7340349;19;110579;-67
2022/10/11 10:07:56;;;;;;;;;;;15.10;99.90;;;;;;7331312;19;108778;-67
2022/10/11 10:10:30;;;;;;;;;;;15.30;99.90;;;;;;7326745;19;112242;-67
2022/10/11 10:12:58;;;;;;;;;;;15.40;99.90;;;;;;7330160;19;109510;-67
2022/10/11 10:15:30;;;;;;;;;;;15.50;99.90;;;;;;7332942;19;110991;-67
2022/10/11 10:17:57;;;;;;;;;;;15.50;99.90;;;;;;7336823;19;109385;-67
2022/10/11 10:20:26;;;;;;;;;;;15.60;99.90;;;;;;7337355;19;108990;-67
2022/10/11 10:22:53;;;;;;;;;;;15.50;99.90;;;;;;7338249;19;109074;-67
2022/10/11 10:25:31;;;;;;;;;;;15.60;99.90;;;;;;7336468;19;109911;-67
2022/10/11 10:27:59;;;;;;;;;;;15.70;99.90;;;;;;7341491;19;109259;-67
2022/10/11 10:30:26;;;;;;;;;;;15.80;99.90;;;;;;7336011;19;109312;-68
2022/10/11 10:33:00;;;;;;;;;;;15.90;99.90;;;;;;7336335;19;109647;-67
2022/10/11 10:35:31;;;;;;;;;;;15.90;99.90;;;;;;7336369;19;109265;-68
2022/10/11 10:38:07;;;;;;;;;;;15.90;99.90;;;;;;7338101;19;109691;-68
2022/10/11 10:40:38;;;;;;;;;;;16.00;99.90;;;;;;7336126;19;110200;-67
2022/10/11 10:43:07;;;;;;;;;;;16.00;99.90;;;;;;7340182;19;109205;-69
2022/10/11 10:45:39;;;;;;;;;;;16.00;99.90;;;;;;7341024;19;112330;-68
2022/10/11 10:48:06;;;;;;;;;;;16.10;99.90;;;;;;7339750;19;108925;-68
2022/10/11 10:50:51;;;;;;;;;;;16.10;99.90;;;;;;7345614;19;108621;-68
2022/10/11 10:53:28;;;;;;;;;;;16.20;99.90;;;;;;7340244;19;108764;-68
2022/10/11 10:55:58;;;;;;;;;;;16.30;99.90;;;;;;7340346;19;109443;-68
2022/10/11 10:58:25;;;;;;;;;;;16.30;99.90;;;;;;7336813;19;110397;-66
2022/10/11 11:00:55;;;;;;;;;;;16.40;99.90;;;;;;7333497;19;110065;-66
2022/10/11 11:03:21;;;;;;;;;;;16.40;99.90;;;;;;7337085;19;109538;-66
2022/10/11 11:05:58;;;;;;;;;;;16.50;99.90;;;;;;7336827;19;110118;-66
2022/10/11 11:08:25;;;;;;;;;;;16.50;99.90;;;;;;7339799;19;108448;-66
2022/10/11 11:11:01;;;;;;;;;;;16.60;99.90;;;;;;7336968;19;109114;-66
2022/10/11 11:13:33;;;;;;;;;;;16.70;99.90;;;;;;7342687;19;109781;-67
2022/10/11 11:16:12;;;;;;;;;;;16.80;99.90;;;;;;7338458;19;109147;-66
2022/10/11 11:18:50;;;;;;;;;;;16.90;99.90;;;;;;7337188;19;109387;-66
2022/10/11 11:21:35;;;;;;;;;;;17.00;99.90;;;;;;7336520;19;108420;-66
2022/10/11 11:24:15;;;;;;;;;;;17.10;99.90;;;;;;7339652;19;108607;-66
2022/10/11 11:26:49;;;;;;;;;;;17.10;99.90;;;;;;7337044;19;109938;-66
2022/10/11 11:29:22;;;;;;;;;;;17.20;99.90;;;;;;7337672;19;108817;-66
2022/10/11 11:32:07;;;;;;;;;;;17.30;99.90;;;;;;7339136;19;109157;-66
2022/10/11 11:34:40;;;;;;;;;;;17.40;99.90;;;;;;7338040;19;111478;-66
2022/10/11 11:37:16;;;;;;;;;;;17.60;99.90;;;;;;7343280;19;109968;-66
2022/10/11 11:39:51;;;;;;;;;;;17.70;99.90;;;;;;7338510;19;110874;-66
2022/10/11 11:42:27;;;;;;;;;;;17.80;99.90;;;;;;7338582;19;109697;-66
2022/10/11 11:44:55;;;;;;;;;;;18.00;99.90;;;;;;7340290;19;109605;-66
2022/10/11 11:47:28;;;;;;;;;;;18.10;99.90;;;;;;7338175;19;109361;-68
2022/10/11 11:50:00;;;;;;;;;;;18.20;99.90;;;;;;7338789;19;108434;-66
2022/10/11 11:52:34;;;;;;;;;;;18.30;99.90;;;;;;7338220;19;108884;-74
2022/10/11 11:55:17;;;;;;;;;;;18.30;99.90;;;;;;7338701;19;110190;-73
2022/10/11 11:57:53;;;;;;;;;;;18.40;99.90;;;;;;7344133;19;110813;-72
2022/10/11 12:00:21;;;;;;;;;;;18.30;99.90;;;;;;7335534;19;110326;-72
2022/10/11 12:02:56;;;;;;;;;;;18.30;99.90;;;;;;7336274;19;108473;-73
2022/10/11 12:05:27;;;;;;;;;;;18.40;99.90;;;;;;7338022;19;109563;-73
2022/10/11 12:07:59;;;;;;;;;;;18.60;99.90;;;;;;7336766;19;111194;-73
2022/10/11 12:10:28;;;;;;;;;;;18.80;99.90;;;;;;7339580;19;108540;-73
2022/10/11 12:13:07;;;;;;;;;;;18.90;99.70;;;;;;7342026;19;110150;-73
2022/10/11 12:15:34;;;;;;;;;;;18.80;98.90;;;;;;7336347;19;110716;-73
2022/10/11 12:18:03;;;;;;;;;;;18.80;99.90;;;;;;7337434;19;109728;-73
2022/10/11 12:20:32;;;;;;;;;;;19.00;99.90;;;;;;7339515;19;108914;-73
2022/10/11 12:23:04;;;;;;;;;;;19.10;99.90;;;;;;7339232;19;109203;-73
2022/10/11 12:25:34;;;;;;;;;;;19.30;99.90;;;;;;7336493;19;111384;-73
2022/10/11 12:28:21;;;;;;;;;;;19.60;99.90;;;;;;7337337;19;111118;-73
2022/10/11 12:30:52;;;;;;;;;;;19.80;99.90;;;;;;7341859;19;108435;-73
2022/10/11 12:33:44;;;;;;;;;;;19.90;97.50;;;;;;7339243;19;109121;-73
2022/10/11 12:36:30;;;;;;;;;;;19.60;99.30;;;;;;7333143;19;110409;-73
2022/10/11 12:39:15;;;;;;;;;;;19.60;99.20;;;;;;7335340;19;108703;-73
2022/10/11 12:44:21;;;;;;;;;;;19.70;97.40;;;;;;7341566;19;110426;-73
2022/10/11 12:46:54;;;;;;;;;;;19.70;98.40;;;;;;7337720;19;109760;-73
2022/10/11 12:49:34;;;;;;;;;;;19.90;99.30;;;;;;7337081;19;109195;-73
2022/10/11 12:52:17;;;;;;;;;;;20.10;98.90;;;;;;7335637;19;109969;-73
2022/10/11 12:54:56;;;;;;;;;;;20.30;98.90;;;;;;7335113;19;108717;-73
2022/10/11 12:57:28;;;;;;;;;;;20.40;95.90;;;;;;7334972;19;109292;-73
2022/10/11 13:00:06;;;;;;;;;;;20.40;97.20;;;;;;7336805;19;109413;-73
2022/10/11 13:02:39;;;;;;;;;;;20.60;97.50;;;;;;7334286;19;109824;-74
2022/10/11 13:05:24;;;;;;;;;;;20.70;98.90;;;;;;7332364;19;110272;-74
2022/10/11 13:07:53;;;;;;;;;;;20.70;96.20;;;;;;7341741;19;109187;-73
2022/10/11 13:10:23;;;;;;;;;;;20.80;96.40;;;;;;7334263;19;111379;-74
2022/10/11 13:12:50;;;;;;;;;;;20.80;97.30;;;;;;7334307;19;108431;-74
2022/10/11 13:15:19;;;;;;;;;;;20.80;96.40;;;;;;7335104;19;108973;-73
2022/10/11 13:17:47;;;;;;;;;;;20.80;95.20;;;;;;7337566;19;109161;-73
2022/10/11 13:20:14;;;;;;;;;;;20.70;96.10;;;;;;7335710;19;108580;-74
2022/10/11 13:22:41;;;;;;;;;;;20.80;98.20;;;;;;7338513;19;109026;-73
2022/10/11 13:25:13;;;;;;;;;;;20.90;96.50;;;;;;7336988;19;109556;-74
2022/10/11 13:27:40;;;;;;;;;;;21.10;96.90;;;;;;7335884;19;109282;-74
2022/10/11 13:30:10;;;;;;;;;;;21.30;97.00;;;;;;7339846;19;109062;-73
2022/10/11 13:32:37;;;;;;;;;;;21.40;96.90;;;;;;7334086;19;110257;-74
2022/10/11 13:35:06;;;;;;;;;;;21.40;96.10;;;;;;7333337;19;110242;-73
2022/10/11 13:37:39;;;;;;;;;;;21.30;93.80;;;;;;7332929;19;110271;-73
2022/10/11 13:40:11;;;;;;;;;;;21.30;96.10;;;;;;7334779;19;108461;-74
2022/10/11 13:42:38;;;;;;;;;;;21.50;95.90;;;;;;7334836;19;108250;-74
2022/10/11 13:45:09;;;;;;;;;;;21.70;95.80;;;;;;7333078;19;110568;-73
2022/10/11 13:47:36;;;;;;;;;;;21.80;96.70;;;;;;7334633;19;108623;-73
2022/10/11 13:50:15;;;;;;;;;;;22.10;96.40;;;;;;7333073;19;108596;-73
2022/10/11 13:52:57;;;;;;;;;;;22.20;95.40;;;;;;7336212;19;109940;-73
2022/10/11 13:55:28;;;;;;;;;;;22.20;95.80;;;;;;7334750;19;111860;-74
2022/10/11 13:57:56;;;;;;;;;;;22.10;95.40;;;;;;7332438;19;111950;-73
2022/10/11 14:00:31;;;;;;;;;;;22.20;95.90;;;;;;7333570;19;109576;-73
2022/10/11 14:03:13;;;;;;;;;;;22.20;93.80;;;;;;7335546;19;108453;-73
2022/10/11 14:05:42;;;;;;;;;;;22.20;93.10;;;;;;7334318;19;110365;-74
2022/10/11 14:08:20;;;;;;;;;;;22.00;92.90;;;;;;7334673;19;108696;-73
2022/10/11 14:10:47;;;;;;;;;;;22.00;94.60;;;;;;7336391;19;110337;-73
2022/10/11 14:13:28;;;;;;;;;;;21.80;92.10;;;;;;7336604;19;109114;-73
2022/10/11 14:15:59;;;;;;;;;;;21.60;92.40;;;;;;7332932;19;108487;-74
2022/10/11 14:18:44;;;;;;;;;;;21.60;93.40;;;;;;7333736;19;109193;-73
2022/10/11 14:21:17;;;;;;;;;;;21.90;93.10;;;;;;7332626;19;109095;-74
2022/10/11 14:23:45;;;;;;;;;;;21.70;90.40;;;;;;7332983;19;109200;-73
2022/10/11 14:26:13;;;;;;;;;;;21.40;91.20;;;;;;7331564;19;109259;-73
2022/10/11 14:28:44;;;;;;;;;;;21.20;91.50;;;;;;7333001;19;109740;-74
2022/10/11 14:31:12;;;;;;;;;;;21.20;91.30;;;;;;7333059;19;109526;-73
2022/10/11 14:33:38;;;;;;;;;;;21.40;94.50;;;;;;7333727;19;109247;-73